createdAt,value
2023-02-14T00:01:29.028Z,5.43
2023-02-14T00:04:00.648Z,6.33
2023-02-14T00:06:29.773Z,7.90
2023-02-14T00:08:58.888Z,8.43
2023-02-14T00:11:26.793Z,8.83
2023-02-14T00:14:13.750Z,7.03
2023-02-14T00:16:42.044Z,8.23
2023-02-14T00:19:12.288Z,11.53
2023-02-14T00:21:41.078Z,10.90
2023-02-14T00:24:11.370Z,7.90
2023-02-14T00:26:39.743Z,6.77
2023-02-14T00:29:13.030Z,8.33
2023-02-14T00:31:41.802Z,8.97
2023-02-14T00:34:10.554Z,11.00
2023-02-14T00:36:38.866Z,9.30
2023-02-14T00:39:08.040Z,6.47
2023-02-14T00:41:35.977Z,8.70
2023-02-14T00:44:04.082Z,7.67
2023-02-14T00:46:33.395Z,7.43
2023-02-14T00:49:01.280Z,5.53
2023-02-14T00:51:29.787Z,8.03
2023-02-14T00:53:57.840Z,7.37
2023-02-14T00:56:25.777Z,7.17
2023-02-14T00:58:53.646Z,6.10
2023-02-14T01:01:22.252Z,7.17
2023-02-14T01:03:51.533Z,10.07
2023-02-14T01:06:19.452Z,7.40
2023-02-14T01:08:47.650Z,7.90
2023-02-14T01:11:17.525Z,7.80
2023-02-14T01:13:46.089Z,7.10
2023-02-14T01:16:16.927Z,8.27
2023-02-14T01:18:45.605Z,11.27
2023-02-14T01:21:17.717Z,8.13
2023-02-14T01:23:46.389Z,8.67
2023-02-14T01:26:15.114Z,7.07
2023-02-14T01:28:44.840Z,7.07
2023-02-14T01:31:15.910Z,7.47
2023-02-14T01:33:45.359Z,8.13
2023-02-14T01:36:20.014Z,8.23
2023-02-14T01:38:48.420Z,8.30
2023-02-14T01:41:16.287Z,8.37
2023-02-14T01:44:06.286Z,8.27
2023-02-14T01:46:36.009Z,13.27
2023-02-14T01:49:09.636Z,8.80
2023-02-14T01:51:44.200Z,8.23
2023-02-14T01:54:13.165Z,7.20
2023-02-14T01:56:45.145Z,8.70
2023-02-14T01:59:16.705Z,9.00
2023-02-14T02:01:46.161Z,10.50
2023-02-14T02:04:19.183Z,10.27
2023-02-14T02:06:53.311Z,9.53
2023-02-14T02:09:26.339Z,9.07
2023-02-14T02:11:54.339Z,9.40
2023-02-14T02:14:23.885Z,7.77
2023-02-14T02:17:15.868Z,8.80
2023-02-14T02:20:14.715Z,8.77
2023-02-14T02:23:27.719Z,10.37
2023-02-14T02:26:27.818Z,10.00
2023-02-14T02:29:37.494Z,8.40
2023-02-14T02:32:29.003Z,7.97
2023-02-14T02:35:24.565Z,9.40
2023-02-14T02:38:07.412Z,7.47
2023-02-14T02:40:47.489Z,11.00
2023-02-14T02:43:26.915Z,10.97
2023-02-14T02:46:19.137Z,8.43
2023-02-14T02:48:55.850Z,12.80
2023-02-14T02:52:05.933Z,8.93
2023-02-14T02:54:39.376Z,7.97
2023-02-14T02:57:12.749Z,9.80
2023-02-14T02:59:45.045Z,8.40
2023-02-14T03:02:18.398Z,9.03
2023-02-14T03:04:53.695Z,9.77
2023-02-14T03:07:39.361Z,11.17
2023-02-14T03:10:13.107Z,10.17
2023-02-14T03:13:02.746Z,10.40
2023-02-14T03:15:53.923Z,9.37
2023-02-14T03:18:37.483Z,11.60
2023-02-14T03:21:15.852Z,12.93
2023-02-14T03:23:53.548Z,9.27
2023-02-14T03:26:29.589Z,9.93
2023-02-14T03:29:03.800Z,10.63
2023-02-14T03:31:35.463Z,10.63
2023-02-14T03:34:12.183Z,10.33
2023-02-14T03:36:43.706Z,11.20
2023-02-14T03:39:18.791Z,11.43
2023-02-14T03:41:54.025Z,14.17
2023-02-14T03:44:28.439Z,10.13
2023-02-14T03:47:01.615Z,11.97
2023-02-14T03:49:33.145Z,12.87
2023-02-14T03:52:03.643Z,10.73
2023-02-14T03:54:35.089Z,14.20
2023-02-14T03:57:11.555Z,10.40
2023-02-14T03:59:40.369Z,11.40
2023-02-14T04:02:12.672Z,14.17
2023-02-14T04:04:44.936Z,14.20
2023-02-14T04:07:14.068Z,11.10
2023-02-14T04:09:45.589Z,11.57
2023-02-14T04:12:13.851Z,14.50
2023-02-14T04:14:42.113Z,13.97
2023-02-14T04:17:27.700Z,9.63
2023-02-14T04:19:55.649Z,13.33
2023-02-14T04:22:23.671Z,12.67
2023-02-14T04:24:53.014Z,12.83
2023-02-14T04:27:20.862Z,13.73
2023-02-14T04:29:50.328Z,15.43
2023-02-14T04:32:20.257Z,12.53
2023-02-14T04:34:48.689Z,13.23
2023-02-14T04:37:19.329Z,12.80
2023-02-14T04:39:47.778Z,11.10
2023-02-14T04:42:17.213Z,13.77
2023-02-14T04:44:45.071Z,12.77
2023-02-14T04:47:12.999Z,12.80
2023-02-14T04:49:41.109Z,15.37
2023-02-14T04:52:08.953Z,12.90
2023-02-14T04:54:36.852Z,11.53
2023-02-14T04:57:04.952Z,10.27
2023-02-14T04:59:34.228Z,16.57
2023-02-14T05:02:03.205Z,13.37
2023-02-14T05:04:31.133Z,14.20
2023-02-14T05:06:59.057Z,15.73
2023-02-14T05:09:26.947Z,13.80
2023-02-14T05:11:54.772Z,13.50
2023-02-14T05:14:22.874Z,13.30
2023-02-14T05:16:52.208Z,14.57
2023-02-14T05:19:20.174Z,16.57
2023-02-14T05:21:48.174Z,12.63
2023-02-14T05:24:17.040Z,12.63
2023-02-14T05:26:44.886Z,15.07
2023-02-14T05:29:12.735Z,13.20
2023-02-14T05:31:40.778Z,12.37
2023-02-14T05:34:10.009Z,16.77
2023-02-14T05:36:37.924Z,14.20
2023-02-14T05:39:05.880Z,14.23
2023-02-14T05:41:33.785Z,13.40
2023-02-14T05:44:01.916Z,18.27
2023-02-14T05:46:29.834Z,14.03
2023-02-14T05:48:57.732Z,17.50
2023-02-14T05:51:26.997Z,13.43
2023-02-14T05:53:54.856Z,14.97
2023-02-14T05:56:22.695Z,13.63
2023-02-14T05:58:50.546Z,15.97
2023-02-14T06:01:18.384Z,15.87
2023-02-14T06:03:46.340Z,15.87
2023-02-14T06:06:14.296Z,17.37
2023-02-14T06:08:43.550Z,16.20
2023-02-14T06:11:11.464Z,14.83
2023-02-14T06:13:41.508Z,15.10
2023-02-14T06:16:09.490Z,15.47
2023-02-14T06:18:37.362Z,19.27
2023-02-14T06:21:05.413Z,17.33
2023-02-14T06:23:33.304Z,16.33
2023-02-14T06:26:02.534Z,15.20
2023-02-14T06:28:30.387Z,20.20
2023-02-14T06:30:58.483Z,17.27
2023-02-14T06:33:26.872Z,18.40
2023-02-14T06:35:55.176Z,13.97
2023-02-14T06:38:23.054Z,15.17
2023-02-14T06:40:50.916Z,17.03
2023-02-14T06:43:20.120Z,19.50
2023-02-14T06:45:48.140Z,21.90
2023-02-14T06:48:16.065Z,19.87
2023-02-14T06:50:43.911Z,19.87
2023-02-14T06:53:11.796Z,16.63
2023-02-14T06:55:43.829Z,17.00
2023-02-14T06:58:12.173Z,17.50
2023-02-14T07:00:41.656Z,16.13
2023-02-14T07:03:09.980Z,17.27
2023-02-14T07:05:38.247Z,19.67
2023-02-14T07:08:08.149Z,20.03
2023-02-14T07:10:36.307Z,17.27
2023-02-14T07:13:04.677Z,16.87
2023-02-14T07:15:32.727Z,16.30
2023-02-14T07:18:02.433Z,17.63
2023-02-14T07:20:30.564Z,20.30
2023-02-14T07:22:58.515Z,18.73
2023-02-14T07:25:28.286Z,17.97
2023-02-14T07:27:56.314Z,19.40
2023-02-14T07:30:25.101Z,19.87
2023-02-14T07:32:53.298Z,18.87
2023-02-14T07:35:22.553Z,18.67
2023-02-14T07:37:51.779Z,23.10
2023-02-14T07:40:20.101Z,25.67
2023-02-14T07:42:54.190Z,20.17
2023-02-14T07:45:22.493Z,28.93
2023-02-14T07:47:51.380Z,22.90
2023-02-14T07:50:19.574Z,18.43
2023-02-14T07:52:48.929Z,20.00
2023-02-14T07:55:17.431Z,18.27
2023-02-14T07:57:45.258Z,18.17
2023-02-14T08:00:14.966Z,18.77
2023-02-14T08:02:42.843Z,21.37
2023-02-14T08:05:11.060Z,19.57
2023-02-14T08:07:38.985Z,20.37
2023-02-14T08:10:11.436Z,23.73
2023-02-14T08:12:58.460Z,24.77
2023-02-14T08:15:44.112Z,27.17
2023-02-14T08:18:12.381Z,22.63
2023-02-14T08:20:40.295Z,22.43
2023-02-14T08:23:08.337Z,22.27
2023-02-14T08:25:40.410Z,19.73
2023-02-14T08:28:08.619Z,22.07
2023-02-14T08:30:38.733Z,22.03
2023-02-14T08:33:06.955Z,19.77
2023-02-14T08:35:35.020Z,21.50
2023-02-14T08:38:05.633Z,24.20
2023-02-14T08:40:35.150Z,26.97
2023-02-14T08:43:04.994Z,20.07
2023-02-14T08:45:32.999Z,24.80
2023-02-14T08:48:05.464Z,21.90
2023-02-14T08:50:33.690Z,24.83
2023-02-14T08:53:02.901Z,23.90
2023-02-14T08:55:30.890Z,24.67
2023-02-14T08:58:00.472Z,22.33
2023-02-14T09:00:29.890Z,22.77
2023-02-14T09:02:57.836Z,21.87
2023-02-14T09:05:26.420Z,22.90
2023-02-14T09:07:55.982Z,21.03
2023-02-14T09:10:24.403Z,20.87
2023-02-14T09:12:52.616Z,20.53
2023-02-14T09:15:21.207Z,23.23
2023-02-14T09:17:51.141Z,20.37
2023-02-14T09:20:19.209Z,22.63
2023-02-14T09:22:48.732Z,20.27
2023-02-14T09:25:17.148Z,22.60
2023-02-14T09:27:45.159Z,20.93
2023-02-14T09:30:14.431Z,21.77
2023-02-14T09:32:42.482Z,22.40
2023-02-14T09:35:11.792Z,20.37
2023-02-14T09:37:57.394Z,22.10
2023-02-14T09:40:26.771Z,17.37
2023-02-14T09:43:02.811Z,19.40
2023-02-14T09:45:33.354Z,15.57
2023-02-14T09:48:07.406Z,23.83
2023-02-14T09:50:41.075Z,19.57
2023-02-14T09:53:19.572Z,18.10
2023-02-14T09:55:54.892Z,19.70
2023-02-14T09:58:29.740Z,17.33
2023-02-14T10:01:03.253Z,15.67
2023-02-14T10:03:48.543Z,16.33
2023-02-14T10:06:32.816Z,15.03
2023-02-14T10:09:09.430Z,17.63
2023-02-14T10:11:38.212Z,16.70
2023-02-14T10:14:12.733Z,19.10
2023-02-14T10:16:44.938Z,19.73
2023-02-14T10:19:20.420Z,15.87
2023-02-14T10:21:55.503Z,19.57
2023-02-14T10:24:28.515Z,16.87
2023-02-14T10:27:01.295Z,16.73
2023-02-14T10:29:29.758Z,16.20
2023-02-14T10:32:01.645Z,16.27
2023-02-14T10:34:36.981Z,16.67
2023-02-14T10:37:26.835Z,18.80
2023-02-14T10:40:11.324Z,13.77
2023-02-14T10:42:51.552Z,18.80
2023-02-14T10:45:25.382Z,15.30
2023-02-14T10:47:59.721Z,15.13
2023-02-14T10:50:33.452Z,12.87
2023-02-14T10:53:14.357Z,14.37
2023-02-14T10:55:48.572Z,15.07
2023-02-14T10:58:19.623Z,16.10
2023-02-14T11:00:56.127Z,15.20
2023-02-14T11:03:25.163Z,13.30
2023-02-14T11:05:53.128Z,15.57
2023-02-14T11:08:27.427Z,14.50
2023-02-14T11:11:00.983Z,14.13
2023-02-14T11:13:35.402Z,13.37
2023-02-14T11:16:06.637Z,14.57
2023-02-14T11:18:36.037Z,13.53
2023-02-14T11:21:07.740Z,13.47
2023-02-14T11:23:40.034Z,13.60
2023-02-14T11:26:15.314Z,12.63
2023-02-14T11:29:04.960Z,14.30
2023-02-14T11:31:36.236Z,13.10
2023-02-14T11:34:06.417Z,13.40
2023-02-14T11:36:41.967Z,15.07
2023-02-14T11:39:26.800Z,12.40
2023-02-14T11:41:57.233Z,14.13
2023-02-14T11:44:27.495Z,13.97
2023-02-14T11:46:57.263Z,13.20
2023-02-14T11:49:29.565Z,18.23
2023-02-14T11:51:59.397Z,13.57
2023-02-14T11:54:34.748Z,15.17
2023-02-14T11:57:07.475Z,10.87
2023-02-14T11:59:39.214Z,13.00
2023-02-14T12:02:22.913Z,12.13
2023-02-14T12:04:54.153Z,12.77
2023-02-14T12:07:26.295Z,11.63
2023-02-14T12:10:16.901Z,11.27
2023-02-14T12:12:51.767Z,12.07
2023-02-14T12:15:27.624Z,13.63
2023-02-14T12:18:02.454Z,11.37
2023-02-14T12:20:41.635Z,11.77
2023-02-14T12:23:19.385Z,12.60
2023-02-14T12:25:55.562Z,13.37
2023-02-14T12:28:30.737Z,13.27
2023-02-14T12:30:59.862Z,14.47
2023-02-14T12:33:28.530Z,14.47
2023-02-14T12:36:03.312Z,14.70
2023-02-14T12:38:46.049Z,12.80
2023-02-14T12:41:27.669Z,12.63
2023-02-14T12:43:57.218Z,13.53
2023-02-14T12:46:49.392Z,13.87
2023-02-14T12:49:49.627Z,14.37
2023-02-14T12:52:34.597Z,13.37
2023-02-14T12:55:19.635Z,12.97
2023-02-14T12:57:55.604Z,13.40
2023-02-14T13:00:34.156Z,17.17
2023-02-14T13:03:37.202Z,14.60
2023-02-14T13:06:11.933Z,13.23
2023-02-14T13:08:53.630Z,17.50
2023-02-14T13:11:35.537Z,14.60
2023-02-14T13:14:16.039Z,12.47
2023-02-14T13:16:50.456Z,13.70
2023-02-14T13:19:33.610Z,16.03
2023-02-14T13:22:03.412Z,12.87
2023-02-14T13:24:36.515Z,13.03
2023-02-14T13:27:08.176Z,13.30
2023-02-14T13:29:45.183Z,13.10
2023-02-14T13:32:16.116Z,12.70
2023-02-14T13:34:47.616Z,12.37
2023-02-14T13:37:19.328Z,14.73
2023-02-14T13:39:49.922Z,13.83
2023-02-14T13:42:51.987Z,13.37
2023-02-14T13:46:06.758Z,13.83
2023-02-14T13:48:38.868Z,14.07
2023-02-14T13:51:08.720Z,14.17
2023-02-14T13:53:39.586Z,13.77
2023-02-14T13:56:34.908Z,13.63
2023-02-14T13:59:05.868Z,13.83
2023-02-14T14:01:38.853Z,13.50
2023-02-14T14:04:37.365Z,13.67
2023-02-14T14:07:26.990Z,11.67
2023-02-14T14:10:01.604Z,12.67
2023-02-14T14:12:45.407Z,11.00
2023-02-14T14:15:20.443Z,12.13
2023-02-14T14:18:23.944Z,11.40
2023-02-14T14:20:53.970Z,13.50
2023-02-14T14:23:34.830Z,12.67
2023-02-14T14:26:03.149Z,14.70
2023-02-14T14:28:33.966Z,11.50
2023-02-14T14:31:02.047Z,11.73
2023-02-14T14:33:31.986Z,12.43
2023-02-14T14:36:03.081Z,10.47
2023-02-14T14:38:32.272Z,12.30
2023-02-14T14:41:01.208Z,12.73
2023-02-14T14:43:32.481Z,11.80
2023-02-14T14:46:03.408Z,11.83
2023-02-14T14:48:33.859Z,12.30
2023-02-14T14:51:06.557Z,10.90
2023-02-14T14:53:44.504Z,10.17
2023-02-14T14:56:14.460Z,11.03
2023-02-14T14:58:42.960Z,11.03
2023-02-14T15:01:15.570Z,13.47
2023-02-14T15:03:43.473Z,12.07
2023-02-14T15:06:19.001Z,11.47
2023-02-14T15:08:48.577Z,10.87
2023-02-14T15:11:35.204Z,12.60
2023-02-14T15:14:05.711Z,13.33
2023-02-14T15:16:41.715Z,10.83
2023-02-14T15:19:12.483Z,10.80
2023-02-14T15:21:44.708Z,13.57
2023-02-14T15:24:16.034Z,8.97
2023-02-14T15:26:45.534Z,10.13
2023-02-14T15:29:22.531Z,18.83
2023-02-14T15:31:51.074Z,12.47
2023-02-14T15:34:21.543Z,10.90
2023-02-14T15:36:52.223Z,10.53
2023-02-14T15:39:23.135Z,10.37
2023-02-14T15:41:55.418Z,11.83
2023-02-14T15:44:25.009Z,12.00
2023-02-14T15:46:57.300Z,9.90
2023-02-14T15:49:32.469Z,10.43
2023-02-14T15:52:04.645Z,13.13
2023-02-14T15:54:37.927Z,9.97
2023-02-14T15:57:07.944Z,12.70
2023-02-14T15:59:37.459Z,9.63
2023-02-14T16:02:22.536Z,11.17
2023-02-14T16:04:50.819Z,12.60
2023-02-14T16:07:24.824Z,11.40
2023-02-14T16:10:21.915Z,11.07
2023-02-14T16:12:59.099Z,11.27
2023-02-14T16:15:28.436Z,11.33
2023-02-14T16:17:56.612Z,9.63
2023-02-14T16:20:43.311Z,10.70
2023-02-14T16:23:29.867Z,11.47
2023-02-14T16:25:58.317Z,13.70
2023-02-14T16:28:30.204Z,12.53
2023-02-14T16:31:00.215Z,13.33
2023-02-14T16:33:30.219Z,11.03
2023-02-14T16:36:02.379Z,11.67
2023-02-14T16:38:34.543Z,11.60
2023-02-14T16:41:04.068Z,9.93
2023-02-14T16:43:32.028Z,14.33
2023-02-14T16:46:00.199Z,15.03
2023-02-14T16:48:28.103Z,10.90
2023-02-14T16:50:56.055Z,12.07
2023-02-14T16:53:27.070Z,14.07
2023-02-14T16:55:58.078Z,11.90
2023-02-14T16:58:32.994Z,10.47
2023-02-14T17:01:01.324Z,12.70
2023-02-14T17:03:29.444Z,16.60
2023-02-14T17:05:59.231Z,13.50
2023-02-14T17:08:27.664Z,12.43
2023-02-14T17:10:58.305Z,13.43
2023-02-14T17:13:30.229Z,13.87
2023-02-14T17:15:58.378Z,12.67
2023-02-14T17:18:26.920Z,13.07
2023-02-14T17:20:55.536Z,14.13
2023-02-14T17:23:24.391Z,13.07
2023-02-14T17:25:52.674Z,14.60
2023-02-14T17:28:21.873Z,15.30
2023-02-14T17:30:49.804Z,14.03
2023-02-14T17:33:17.789Z,15.47
2023-02-14T17:35:45.707Z,15.47
2023-02-14T17:38:13.780Z,16.47
2023-02-14T17:40:41.796Z,14.67
2023-02-14T17:43:09.863Z,14.67
2023-02-14T17:45:40.260Z,13.17
2023-02-14T17:48:11.655Z,16.30
2023-02-14T17:50:39.791Z,15.37
2023-02-14T17:53:07.768Z,13.00
2023-02-14T17:55:37.337Z,18.93
2023-02-14T17:58:05.394Z,16.00
2023-02-14T18:00:33.471Z,19.33
2023-02-14T18:03:02.836Z,15.60
2023-02-14T18:05:30.798Z,16.93
2023-02-14T18:07:58.849Z,17.13
2023-02-14T18:10:26.742Z,15.57
2023-02-14T18:12:54.617Z,16.40
2023-02-14T18:15:22.568Z,15.57
2023-02-14T18:17:50.889Z,15.17
2023-02-14T18:20:20.631Z,16.20
2023-02-14T18:22:48.506Z,16.27
2023-02-14T18:25:16.778Z,16.63
2023-02-14T18:27:44.754Z,16.40
2023-02-14T18:30:13.631Z,17.03
2023-02-14T18:32:41.562Z,14.83
2023-02-14T18:35:09.824Z,16.00
2023-02-14T18:37:39.123Z,17.27
2023-02-14T18:40:10.197Z,16.10
2023-02-14T18:42:38.875Z,17.67
2023-02-14T18:45:07.642Z,15.97
2023-02-14T18:47:35.659Z,17.70
2023-02-14T18:50:03.595Z,14.50
2023-02-14T18:52:31.533Z,18.20
2023-02-14T18:55:03.129Z,14.40
2023-02-14T18:57:31.423Z,16.77
2023-02-14T18:59:59.371Z,16.17
2023-02-14T19:02:27.674Z,16.70
2023-02-14T19:04:55.755Z,15.30
2023-02-14T19:07:24.249Z,21.43
2023-02-14T19:09:52.582Z,18.27
2023-02-14T19:12:21.777Z,18.67
2023-02-14T19:14:49.819Z,16.10
2023-02-14T19:17:17.980Z,17.13
2023-02-14T19:19:46.194Z,16.83
2023-02-14T19:22:14.116Z,14.07
2023-02-14T19:24:42.208Z,19.77
2023-02-14T19:27:10.167Z,20.67
2023-02-14T19:29:40.397Z,17.30
2023-02-14T19:32:08.435Z,16.63
2023-02-14T19:34:36.690Z,18.50
2023-02-14T19:37:04.759Z,18.17
2023-02-14T19:39:32.970Z,19.53
2023-02-14T19:42:01.234Z,17.37
2023-02-14T19:44:31.005Z,19.90
2023-02-14T19:47:04.111Z,19.53
2023-02-14T19:49:36.220Z,22.93
2023-02-14T19:52:06.190Z,18.10
2023-02-14T19:54:39.795Z,18.70
2023-02-14T19:57:07.711Z,16.10
2023-02-14T19:59:35.591Z,18.70
2023-02-14T20:02:05.061Z,22.43
2023-02-14T20:04:32.900Z,19.23
2023-02-14T20:07:01.037Z,18.70
2023-02-14T20:09:29.241Z,18.90
2023-02-14T20:11:58.921Z,18.43
2023-02-14T20:14:28.699Z,20.07
2023-02-14T20:16:58.614Z,20.80
2023-02-14T20:19:29.481Z,20.70
2023-02-14T20:21:57.590Z,21.17
2023-02-14T20:24:26.883Z,22.73
2023-02-14T20:26:55.553Z,21.93
2023-02-14T20:29:24.612Z,20.70
2023-02-14T20:31:55.616Z,19.07
2023-02-14T20:34:23.512Z,23.13
2023-02-14T20:36:55.292Z,21.10
2023-02-14T20:39:28.168Z,20.43
2023-02-14T20:41:56.606Z,22.00
2023-02-14T20:44:24.637Z,19.90
2023-02-14T20:46:53.984Z,21.53
2023-02-14T20:49:23.419Z,21.37
2023-02-14T20:51:53.862Z,24.20
2023-02-14T20:54:23.883Z,22.73
2023-02-14T20:56:51.960Z,20.33
2023-02-14T20:59:24.358Z,19.40
2023-02-14T21:01:52.477Z,24.03
2023-02-14T21:04:20.401Z,20.20
2023-02-14T21:06:48.998Z,24.23
2023-02-14T21:09:20.344Z,22.63
2023-02-14T21:11:49.594Z,21.30
2023-02-14T21:14:18.015Z,21.27
2023-02-14T21:16:48.205Z,20.07
2023-02-14T21:19:16.209Z,20.37
2023-02-14T21:21:44.136Z,21.20
2023-02-14T21:24:14.430Z,21.93
2023-02-14T21:26:46.224Z,20.93
2023-02-14T21:29:14.069Z,20.53
2023-02-14T21:31:42.408Z,21.70
2023-02-14T21:34:10.503Z,20.07
2023-02-14T21:36:38.347Z,22.10
2023-02-14T21:39:07.405Z,21.97
2023-02-14T21:41:36.245Z,21.63
2023-02-14T21:44:06.452Z,20.30
2023-02-14T21:46:36.803Z,19.53
2023-02-14T21:49:24.638Z,19.27
2023-02-14T21:51:52.696Z,22.47
2023-02-14T21:54:20.629Z,20.17
2023-02-14T21:56:49.275Z,20.67
2023-02-14T21:59:20.137Z,22.40
2023-02-14T22:01:48.043Z,22.13
2023-02-14T22:04:16.199Z,22.70
2023-02-14T22:06:44.387Z,22.30
2023-02-14T22:09:17.274Z,22.67
2023-02-14T22:11:47.450Z,19.30
2023-02-14T22:14:15.857Z,20.23
2023-02-14T22:16:45.236Z,21.23
2023-02-14T22:19:16.095Z,22.77
2023-02-14T22:21:44.704Z,20.93
2023-02-14T22:24:13.588Z,23.83
2023-02-14T22:26:41.956Z,21.47
2023-02-14T22:29:12.360Z,21.20
2023-02-14T22:31:42.056Z,20.53
2023-02-14T22:34:13.648Z,26.97
2023-02-14T22:36:41.842Z,22.83
2023-02-14T22:39:11.391Z,20.93
2023-02-14T22:41:39.873Z,22.73
2023-02-14T22:44:08.163Z,23.53
2023-02-14T22:46:37.645Z,22.67
2023-02-14T22:49:06.662Z,25.47
2023-02-14T22:51:37.678Z,26.17
2023-02-14T22:54:07.941Z,25.13
2023-02-14T22:56:38.807Z,24.63
2023-02-14T22:59:08.607Z,25.63
2023-02-14T23:01:37.196Z,22.47
2023-02-14T23:04:05.626Z,26.07
2023-02-14T23:06:36.984Z,26.60
2023-02-14T23:09:06.059Z,23.77
2023-02-14T23:11:36.082Z,25.03
2023-02-14T23:14:22.385Z,23.03
2023-02-14T23:17:19.848Z,27.00
2023-02-14T23:20:05.969Z,27.43
2023-02-14T23:22:37.489Z,22.90
2023-02-14T23:25:07.739Z,23.80
2023-02-14T23:27:37.804Z,28.40
2023-02-14T23:30:06.435Z,26.30
2023-02-14T23:32:34.530Z,25.73
2023-02-14T23:35:03.774Z,23.67
2023-02-14T23:37:31.703Z,24.30
2023-02-14T23:40:00.963Z,25.87
2023-02-14T23:42:29.160Z,23.77
2023-02-14T23:45:17.693Z,22.23
2023-02-14T23:47:45.643Z,25.93
2023-02-14T23:50:13.562Z,24.40
2023-02-14T23:52:44.398Z,23.60
2023-02-14T23:55:13.820Z,26.50
2023-02-14T23:57:41.722Z,25.73
